sensor_id;sensor_type;location;lat;lon;timestamp;temperature;humidity
24152;DHT22;12311;50.866;4.332;2023-04-06T05:32:46;8.40;99.90
24152;DHT22;12311;50.866;4.332;2023-04-06T05:35:12;8.40;99.90
24152;DHT22;12311;50.866;4.332;2023-04-06T05:37:38;8.40;99.90
24152;DHT22;12311;50.866;4.332;2023-04-06T05:40:05;8.40;99.90
24152;DHT22;12311;50.866;4.332;2023-04-06T05:42:37;8.40;99.90
24152;DHT22;12311;50.866;4.332;2023-04-06T05:45:05;8.40;99.90
24152;DHT22;12311;50.866;4.332;2023-04-06T05:47:31;8.50;99.90
24152;DHT22;12311;50.866;4.332;2023-04-06T05:49:56;8.70;99.90
24152;DHT22;12311;50.866;4.332;2023-04-06T05:52:22;8.80;99.90
24152;DHT22;12311;50.866;4.332;2023-04-06T05:54:48;8.90;99.90
24152;DHT22;12311;50.866;4.332;2023-04-06T05:57:13;8.90;99.90
24152;DHT22;12311;50.866;4.332;2023-04-06T05:59:39;8.80;99.90
24152;DHT22;12311;50.866;4.332;2023-04-06T06:02:05;8.80;99.90
24152;DHT22;12311;50.866;4.332;2023-04-06T06:04:30;8.90;99.90
24152;DHT22;12311;50.866;4.332;2023-04-06T06:06:56;8.90;99.90
24152;DHT22;12311;50.866;4.332;2023-04-06T06:09:22;9.00;99.90
24152;DHT22;12311;50.866;4.332;2023-04-06T06:11:49;9.00;99.90
24152;DHT22;12311;50.866;4.332;2023-04-06T06:14:14;8.90;99.90
24152;DHT22;12311;50.866;4.332;2023-04-06T06:16:40;9.00;99.90
24152;DHT22;12311;50.866;4.332;2023-04-06T06:19:07;9.00;99.90
24152;DHT22;12311;50.866;4.332;2023-04-06T06:21:33;9.00;99.90
24152;DHT22;12311;50.866;4.332;2023-04-06T06:23:59;8.90;99.90
24152;DHT22;12311;50.866;4.332;2023-04-06T06:26:25;8.80;99.90
24152;DHT22;12311;50.866;4.332;2023-04-06T06:28:51;8.70;99.90
24152;DHT22;12311;50.866;4.332;2023-04-06T06:31:17;8.60;99.90
24152;DHT22;12311;50.866;4.332;2023-04-06T06:33:45;8.50;99.90
24152;DHT22;12311;50.866;4.332;2023-04-06T06:36:11;8.40;99.90
24152;DHT22;12311;50.866;4.332;2023-04-06T06:38:37;8.40;99.90
24152;DHT22;12311;50.866;4.332;2023-04-06T06:41:04;8.30;99.90
24152;DHT22;12311;50.866;4.332;2023-04-06T06:43:29;8.30;99.90
24152;DHT22;12311;50.866;4.332;2023-04-06T06:45:55;8.30;99.90
24152;DHT22;12311;50.866;4.332;2023-04-06T06:48:21;8.20;99.90
24152;DHT22;12311;50.866;4.332;2023-04-06T06:50:47;8.10;99.90
24152;DHT22;12311;50.866;4.332;2023-04-06T06:53:13;8.00;99.90
24152;DHT22;12311;50.866;4.332;2023-04-06T06:55:40;7.80;99.90
24152;DHT22;12311;50.866;4.332;2023-04-06T06:58:06;7.70;99.90
24152;DHT22;12311;50.866;4.332;2023-04-06T07:00:32;7.70;99.90
24152;DHT22;12311;50.866;4.332;2023-04-06T07:02:57;7.60;99.90
24152;DHT22;12311;50.866;4.332;2023-04-06T07:05:23;7.60;99.90
24152;DHT22;12311;50.866;4.332;2023-04-06T07:07:49;7.70;99.90
24152;DHT22;12311;50.866;4.332;2023-04-06T07:10:15;7.70;99.90
24152;DHT22;12311;50.866;4.332;2023-04-06T07:12:40;7.70;99.90
24152;DHT22;12311;50.866;4.332;2023-04-06T07:15:07;7.70;99.90
24152;DHT22;12311;50.866;4.332;2023-04-06T07:17:33;7.60;99.90
24152;DHT22;12311;50.866;4.332;2023-04-06T07:19:58;7.70;99.90
24152;DHT22;12311;50.866;4.332;2023-04-06T07:22:24;7.70;99.90
24152;DHT22;12311;50.866;4.332;2023-04-06T07:24:50;7.80;99.90
24152;DHT22;12311;50.866;4.332;2023-04-06T07:27:16;7.80;99.90
24152;DHT22;12311;50.866;4.332;2023-04-06T07:29:44;7.80;99.90
24152;DHT22;12311;50.866;4.332;2023-04-06T07:32:10;7.80;99.90
24152;DHT22;12311;50.866;4.332;2023-04-06T07:34:35;7.80;99.90
24152;DHT22;12311;50.866;4.332;2023-04-06T07:37:01;7.90;99.90
24152;DHT22;12311;50.866;4.332;2023-04-06T07:39:28;7.80;99.90
24152;DHT22;12311;50.866;4.332;2023-04-06T07:41:54;7.80;99.90
24152;DHT22;12311;50.866;4.332;2023-04-06T07:44:20;7.80;99.90
24152;DHT22;12311;50.866;4.332;2023-04-06T07:46:46;7.70;99.90
24152;DHT22;12311;50.866;4.332;2023-04-06T07:49:11;7.70;99.90
24152;DHT22;12311;50.866;4.332;2023-04-06T07:51:38;7.60;99.90
24152;DHT22;12311;50.866;4.332;2023-04-06T07:54:04;7.70;99.90
24152;DHT22;12311;50.866;4.332;2023-04-06T07:56:30;7.70;99.90
24152;DHT22;12311;50.866;4.332;2023-04-06T07:58:56;7.80;99.90
24152;DHT22;12311;50.866;4.332;2023-04-06T08:01:24;7.80;99.90
24152;DHT22;12311;50.866;4.332;2023-04-06T08:03:50;7.80;99.90
24152;DHT22;12311;50.866;4.332;2023-04-06T08:06:16;7.90;99.90
24152;DHT22;12311;50.866;4.332;2023-04-06T08:08:42;7.90;99.90
24152;DHT22;12311;50.866;4.332;2023-04-06T08:11:08;8.00;99.90
24152;DHT22;12311;50.866;4.332;2023-04-06T08:13:34;7.90;99.90
24152;DHT22;12311;50.866;4.332;2023-04-06T08:16:00;8.00;99.90
24152;DHT22;12311;50.866;4.332;2023-04-06T08:18:26;8.00;99.90
24152;DHT22;12311;50.866;4.332;2023-04-06T08:20:52;7.90;99.90
24152;DHT22;12311;50.866;4.332;2023-04-06T08:23:18;7.90;99.90
24152;DHT22;12311;50.866;4.332;2023-04-06T08:25:44;8.00;99.90
24152;DHT22;12311;50.866;4.332;2023-04-06T08:28:09;7.90;99.90
24152;DHT22;12311;50.866;4.332;2023-04-06T08:30:36;7.90;99.90
24152;DHT22;12311;50.866;4.332;2023-04-06T08:33:02;7.90;99.90
24152;DHT22;12311;50.866;4.332;2023-04-06T08:35:28;7.90;99.90
24152;DHT22;12311;50.866;4.332;2023-04-06T08:37:54;7.90;99.90
24152;DHT22;12311;50.866;4.332;2023-04-06T08:40:19;7.90;99.90
24152;DHT22;12311;50.866;4.332;2023-04-06T08:42:50;7.80;99.90
24152;DHT22;12311;50.866;4.332;2023-04-06T08:45:17;7.90;99.90
24152;DHT22;12311;50.866;4.332;2023-04-06T08:47:52;7.80;99.90
24152;DHT22;12311;50.866;4.332;2023-04-06T08:50:20;7.70;99.90
24152;DHT22;12311;50.866;4.332;2023-04-06T08:52:49;7.80;99.90
24152;DHT22;12311;50.866;4.332;2023-04-06T08:55:15;7.80;99.90
24152;DHT22;12311;50.866;4.332;2023-04-06T08:57:42;7.80;99.90
24152;DHT22;12311;50.866;4.332;2023-04-06T09:00:10;7.80;99.90
24152;DHT22;12311;50.866;4.332;2023-04-06T09:02:39;8.00;99.90
24152;DHT22;12311;50.866;4.332;2023-04-06T09:05:08;8.00;99.90
24152;DHT22;12311;50.866;4.332;2023-04-06T09:07:37;8.10;99.90
24152;DHT22;12311;50.866;4.332;2023-04-06T09:10:05;8.00;99.90
24152;DHT22;12311;50.866;4.332;2023-04-06T09:12:31;8.00;99.90
24152;DHT22;12311;50.866;4.332;2023-04-06T09:14:58;8.00;99.90
24152;DHT22;12311;50.866;4.332;2023-04-06T09:17:30;8.10;99.90
24152;DHT22;12311;50.866;4.332;2023-04-06T09:19:58;8.20;99.90
24152;DHT22;12311;50.866;4.332;2023-04-06T09:22:24;8.20;99.90
24152;DHT22;12311;50.866;4.332;2023-04-06T09:24:52;8.20;99.90
24152;DHT22;12311;50.866;4.332;2023-04-06T09:27:33;8.10;99.90
24152;DHT22;12311;50.866;4.332;2023-04-06T09:30:07;8.10;99.90
24152;DHT22;12311;50.866;4.332;2023-04-06T09:32:54;8.10;99.90
24152;DHT22;12311;50.866;4.332;2023-04-06T09:35:21;8.00;99.90
24152;DHT22;12311;50.866;4.332;2023-04-06T09:37:48;8.10;99.90
24152;DHT22;12311;50.866;4.332;2023-04-06T09:40:14;8.00;99.90
24152;DHT22;12311;50.866;4.332;2023-04-06T09:42:45;8.10;99.90
24152;DHT22;12311;50.866;4.332;2023-04-06T09:45:12;8.10;99.90
24152;DHT22;12311;50.866;4.332;2023-04-06T09:47:40;8.10;99.90
24152;DHT22;12311;50.866;4.332;2023-04-06T09:50:08;8.10;99.90
24152;DHT22;12311;50.866;4.332;2023-04-06T09:52:56;8.10;99.90
24152;DHT22;12311;50.866;4.332;2023-04-06T09:55:28;8.10;99.90
24152;DHT22;12311;50.866;4.332;2023-04-06T09:58:04;8.10;99.90
24152;DHT22;12311;50.866;4.332;2023-04-06T10:00:34;8.10;99.90
24152;DHT22;12311;50.866;4.332;2023-04-06T10:03:21;8.10;99.90
24152;DHT22;12311;50.866;4.332;2023-04-06T10:05:57;8.10;99.90
24152;DHT22;12311;50.866;4.332;2023-04-06T10:08:27;8.20;99.90
24152;DHT22;12311;50.866;4.332;2023-04-06T10:10:55;8.20;99.90
24152;DHT22;12311;50.866;4.332;2023-04-06T10:13:23;8.10;99.90
24152;DHT22;12311;50.866;4.332;2023-04-06T10:15:49;8.10;99.90
24152;DHT22;12311;50.866;4.332;2023-04-06T10:18:16;8.00;99.90
24152;DHT22;12311;50.866;4.332;2023-04-06T10:21:08;8.00;99.90
24152;DHT22;12311;50.866;4.332;2023-04-06T10:23:43;8.10;99.90
24152;DHT22;12311;50.866;4.332;2023-04-06T10:26:15;8.10;99.90
24152;DHT22;12311;50.866;4.332;2023-04-06T10:28:43;8.10;99.90
24152;DHT22;12311;50.866;4.332;2023-04-06T10:31:08;8.20;99.90
24152;DHT22;12311;50.866;4.332;2023-04-06T10:33:34;8.20;99.90
24152;DHT22;12311;50.866;4.332;2023-04-06T10:36:23;8.20;99.90
24152;DHT22;12311;50.866;4.332;2023-04-06T10:38:55;8.30;99.90
24152;DHT22;12311;50.866;4.332;2023-04-06T10:41:21;8.30;99.90
24152;DHT22;12311;50.866;4.332;2023-04-06T10:43:55;8.30;99.90
24152;DHT22;12311;50.866;4.332;2023-04-06T10:46:26;8.40;99.90
24152;DHT22;12311;50.866;4.332;2023-04-06T10:48:52;8.50;99.90
24152;DHT22;12311;50.866;4.332;2023-04-06T10:51:19;8.40;99.90
24152;DHT22;12311;50.866;4.332;2023-04-06T10:53:49;8.50;99.90
24152;DHT22;12311;50.866;4.332;2023-04-06T10:56:16;8.50;99.90
24152;DHT22;12311;50.866;4.332;2023-04-06T10:58:46;8.50;99.90
24152;DHT22;12311;50.866;4.332;2023-04-06T11:01:13;8.50;99.90
24152;DHT22;12311;50.866;4.332;2023-04-06T11:03:47;8.40;99.90
24152;DHT22;12311;50.866;4.332;2023-04-06T11:06:20;8.40;99.90
24152;DHT22;12311;50.866;4.332;2023-04-06T11:08:46;8.50;99.90
24152;DHT22;12311;50.866;4.332;2023-04-06T11:11:16;8.60;99.90
24152;DHT22;12311;50.866;4.332;2023-04-06T11:16:13;8.80;99.90
24152;DHT22;12311;50.866;4.332;2023-04-06T11:18:50;8.80;99.90
24152;DHT22;12311;50.866;4.332;2023-04-06T11:21:16;8.80;99.90
24152;DHT22;12311;50.866;4.332;2023-04-06T11:23:42;8.80;99.90
24152;DHT22;12311;50.866;4.332;2023-04-06T11:26:14;8.80;99.90
24152;DHT22;12311;50.866;4.332;2023-04-06T11:28:44;8.90;99.90
24152;DHT22;12311;50.866;4.332;2023-04-06T11:31:10;8.90;99.90
24152;DHT22;12311;50.866;4.332;2023-04-06T11:33:37;8.90;99.90
24152;DHT22;12311;50.866;4.332;2023-04-06T11:36:05;8.90;99.90
24152;DHT22;12311;50.866;4.332;2023-04-06T11:38:31;8.90;99.90
24152;DHT22;12311;50.866;4.332;2023-04-06T11:40:57;9.00;99.90
24152;DHT22;12311;50.866;4.332;2023-04-06T11:43:30;9.10;99.90
24152;DHT22;12311;50.866;4.332;2023-04-06T11:46:03;8.90;99.90
24152;DHT22;12311;50.866;4.332;2023-04-06T11:48:30;9.00;99.90
24152;DHT22;12311;50.866;4.332;2023-04-06T11:50:59;8.90;99.90
24152;DHT22;12311;50.866;4.332;2023-04-06T11:53:29;8.80;99.90
24152;DHT22;12311;50.866;4.332;2023-04-06T11:55:56;8.90;99.90
24152;DHT22;12311;50.866;4.332;2023-04-06T11:58:22;8.70;99.90
24152;DHT22;12311;50.866;4.332;2023-04-06T12:00:48;8.70;99.90
24152;DHT22;12311;50.866;4.332;2023-04-06T12:03:14;8.70;99.90
24152;DHT22;12311;50.866;4.332;2023-04-06T12:05:39;8.70;99.90
24152;DHT22;12311;50.866;4.332;2023-04-06T12:08:05;8.70;99.90
24152;DHT22;12311;50.866;4.332;2023-04-06T12:10:31;8.70;99.90
24152;DHT22;12311;50.866;4.332;2023-04-06T12:12:56;8.70;99.90
24152;DHT22;12311;50.866;4.332;2023-04-06T12:15:22;8.70;99.90
24152;DHT22;12311;50.866;4.332;2023-04-06T12:17:48;8.80;99.90
24152;DHT22;12311;50.866;4.332;2023-04-06T12:20:15;8.90;99.90
24152;DHT22;12311;50.866;4.332;2023-04-06T12:22:40;8.90;99.90
24152;DHT22;12311;50.866;4.332;2023-04-06T12:25:07;8.90;99.90
24152;DHT22;12311;50.866;4.332;2023-04-06T12:27:33;9.00;99.90
24152;DHT22;12311;50.866;4.332;2023-04-06T12:29:59;8.90;99.90
24152;DHT22;12311;50.866;4.332;2023-04-06T12:32:24;8.90;99.90
24152;DHT22;12311;50.866;4.332;2023-04-06T12:34:52;8.90;99.90
24152;DHT22;12311;50.866;4.332;2023-04-06T12:37:18;8.80;99.90
24152;DHT22;12311;50.866;4.332;2023-04-06T12:39:43;8.90;99.90
24152;DHT22;12311;50.866;4.332;2023-04-06T12:42:10;8.90;99.90
24152;DHT22;12311;50.866;4.332;2023-04-06T12:44:37;8.80;99.90
24152;DHT22;12311;50.866;4.332;2023-04-06T12:47:03;8.80;99.90
24152;DHT22;12311;50.866;4.332;2023-04-06T12:49:30;8.80;99.90
24152;DHT22;12311;50.866;4.332;2023-04-06T12:51:57;8.80;99.90
24152;DHT22;12311;50.866;4.332;2023-04-06T12:54:22;8.70;99.90
24152;DHT22;12311;50.866;4.332;2023-04-06T12:56:48;8.70;99.90
24152;DHT22;12311;50.866;4.332;2023-04-06T12:59:13;8.70;99.90
24152;DHT22;12311;50.866;4.332;2023-04-06T13:01:40;8.70;99.90
24152;DHT22;12311;50.866;4.332;2023-04-06T13:04:05;8.80;99.90
24152;DHT22;12311;50.866;4.332;2023-04-06T13:06:31;8.80;99.90
24152;DHT22;12311;50.866;4.332;2023-04-06T13:08:57;8.90;99.90
24152;DHT22;12311;50.866;4.332;2023-04-06T13:11:22;8.80;99.90
24152;DHT22;12311;50.866;4.332;2023-04-06T13:13:49;8.80;99.90
24152;DHT22;12311;50.866;4.332;2023-04-06T13:16:15;8.80;99.90
24152;DHT22;12311;50.866;4.332;2023-04-06T13:18:41;8.80;99.90
24152;DHT22;12311;50.866;4.332;2023-04-06T13:21:07;8.90;99.90
24152;DHT22;12311;50.866;4.332;2023-04-06T13:23:33;8.90;99.90
24152;DHT22;12311;50.866;4.332;2023-04-06T13:26:04;9.00;99.90
24152;DHT22;12311;50.866;4.332;2023-04-06T13:28:31;9.00;99.90
24152;DHT22;12311;50.866;4.332;2023-04-06T13:30:59;9.00;99.90
24152;DHT22;12311;50.866;4.332;2023-04-06T13:33:25;9.10;99.90
24152;DHT22;12311;50.866;4.332;2023-04-06T13:35:51;9.10;99.90
24152;DHT22;12311;50.866;4.332;2023-04-06T13:38:17;9.10;99.90
24152;DHT22;12311;50.866;4.332;2023-04-06T13:40:43;9.10;99.90
24152;DHT22;12311;50.866;4.332;2023-04-06T13:43:09;9.10;99.90
24152;DHT22;12311;50.866;4.332;2023-04-06T13:45:36;9.10;99.90
24152;DHT22;12311;50.866;4.332;2023-04-06T13:48:02;9.10;99.90
24152;DHT22;12311;50.866;4.332;2023-04-06T13:50:28;9.10;99.90
24152;DHT22;12311;50.866;4.332;2023-04-06T13:52:54;9.10;99.90
24152;DHT22;12311;50.866;4.332;2023-04-06T13:55:20;9.10;99.90
24152;DHT22;12311;50.866;4.332;2023-04-06T13:57:45;9.10;99.90
24152;DHT22;12311;50.866;4.332;2023-04-06T14:00:11;9.10;99.90
24152;DHT22;12311;50.866;4.332;2023-04-06T14:02:39;9.10;99.90
24152;DHT22;12311;50.866;4.332;2023-04-06T14:05:05;9.10;99.90
24152;DHT22;12311;50.866;4.332;2023-04-06T14:07:31;9.10;99.90
24152;DHT22;12311;50.866;4.332;2023-04-06T14:09:57;9.00;99.90
24152;DHT22;12311;50.866;4.332;2023-04-06T14:12:22;9.00;99.90
24152;DHT22;12311;50.866;4.332;2023-04-06T14:14:51;9.00;99.90
24152;DHT22;12311;50.866;4.332;2023-04-06T14:17:16;9.00;99.90
24152;DHT22;12311;50.866;4.332;2023-04-06T14:19:42;9.10;99.90
24152;DHT22;12311;50.866;4.332;2023-04-06T14:22:08;9.00;99.90
24152;DHT22;12311;50.866;4.332;2023-04-06T14:24:34;9.10;99.90
24152;DHT22;12311;50.866;4.332;2023-04-06T14:27:01;9.10;99.90
24152;DHT22;12311;50.866;4.332;2023-04-06T14:29:27;9.10;99.90
24152;DHT22;12311;50.866;4.332;2023-04-06T14:31:53;9.10;99.90
24152;DHT22;12311;50.866;4.332;2023-04-06T14:34:27;9.10;99.90
24152;DHT22;12311;50.866;4.332;2023-04-06T14:36:55;9.20;99.90
24152;DHT22;12311;50.866;4.332;2023-04-06T14:39:20;9.30;99.90
24152;DHT22;12311;50.866;4.332;2023-04-06T14:41:46;9.40;99.90
24152;DHT22;12311;50.866;4.332;2023-04-06T14:44:15;9.40;99.90
24152;DHT22;12311;50.866;4.332;2023-04-06T14:46:42;9.50;99.90
24152;DHT22;12311;50.866;4.332;2023-04-06T14:49:07;9.50;99.90
24152;DHT22;12311;50.866;4.332;2023-04-06T14:51:34;9.50;99.90
24152;DHT22;12311;50.866;4.332;2023-04-06T14:54:01;9.50;99.90
24152;DHT22;12311;50.866;4.332;2023-04-06T14:56:28;9.60;99.90
24152;DHT22;12311;50.866;4.332;2023-04-06T14:58:57;9.70;99.90
24152;DHT22;12311;50.866;4.332;2023-04-06T15:01:23;9.70;99.90
24152;DHT22;12311;50.866;4.332;2023-04-06T15:03:49;9.70;99.90
24152;DHT22;12311;50.866;4.332;2023-04-06T15:06:15;9.60;99.90
24152;DHT22;12311;50.866;4.332;2023-04-06T15:08:45;9.60;99.90
24152;DHT22;12311;50.866;4.332;2023-04-06T15:11:12;9.80;99.90
24152;DHT22;12311;50.866;4.332;2023-04-06T15:13:39;9.90;99.90
24152;DHT22;12311;50.866;4.332;2023-04-06T15:16:05;10.00;99.90
24152;DHT22;12311;50.866;4.332;2023-04-06T15:18:33;10.10;99.90
24152;DHT22;12311;50.866;4.332;2023-04-06T15:20:59;10.10;99.90
24152;DHT22;12311;50.866;4.332;2023-04-06T15:23:25;10.20;99.90
24152;DHT22;12311;50.866;4.332;2023-04-06T15:25:51;10.20;99.90
24152;DHT22;12311;50.866;4.332;2023-04-06T15:28:17;10.20;99.90
24152;DHT22;12311;50.866;4.332;2023-04-06T15:30:42;10.20;99.90
24152;DHT22;12311;50.866;4.332;2023-04-06T15:33:08;10.30;99.90
24152;DHT22;12311;50.866;4.332;2023-04-06T15:35:34;10.40;99.90
24152;DHT22;12311;50.866;4.332;2023-04-06T15:38:05;10.50;99.90
24152;DHT22;12311;50.866;4.332;2023-04-06T15:40:31;10.40;99.90
24152;DHT22;12311;50.866;4.332;2023-04-06T15:42:57;10.40;99.90
24152;DHT22;12311;50.866;4.332;2023-04-06T15:45:23;10.40;99.90
24152;DHT22;12311;50.866;4.332;2023-04-06T15:47:49;10.40;99.90
24152;DHT22;12311;50.866;4.332;2023-04-06T15:50:16;10.30;99.90
24152;DHT22;12311;50.866;4.332;2023-04-06T15:52:43;10.30;99.90
24152;DHT22;12311;50.866;4.332;2023-04-06T15:55:08;10.40;99.90
24152;DHT22;12311;50.866;4.332;2023-04-06T15:57:34;10.50;99.90
24152;DHT22;12311;50.866;4.332;2023-04-06T16:00:02;10.50;99.90
24152;DHT22;12311;50.866;4.332;2023-04-06T16:02:28;10.50;99.90
24152;DHT22;12311;50.866;4.332;2023-04-06T16:04:54;10.50;99.90
24152;DHT22;12311;50.866;4.332;2023-04-06T16:07:21;10.50;99.90
24152;DHT22;12311;50.866;4.332;2023-04-06T16:09:47;10.50;99.90
24152;DHT22;12311;50.866;4.332;2023-04-06T16:12:12;10.50;99.90
24152;DHT22;12311;50.866;4.332;2023-04-06T16:14:38;10.60;99.90
24152;DHT22;12311;50.866;4.332;2023-04-06T16:17:04;10.60;99.90
24152;DHT22;12311;50.866;4.332;2023-04-06T16:19:30;10.70;99.90
24152;DHT22;12311;50.866;4.332;2023-04-06T16:21:55;10.70;99.90
24152;DHT22;12311;50.866;4.332;2023-04-06T16:24:22;10.70;99.90
24152;DHT22;12311;50.866;4.332;2023-04-06T16:26:47;10.70;99.90
24152;DHT22;12311;50.866;4.332;2023-04-06T16:29:13;10.70;99.90
24152;DHT22;12311;50.866;4.332;2023-04-06T16:31:41;10.70;99.90
24152;DHT22;12311;50.866;4.332;2023-04-06T16:34:11;10.80;99.90
24152;DHT22;12311;50.866;4.332;2023-04-06T16:36:37;10.80;99.90
24152;DHT22;12311;50.866;4.332;2023-04-06T16:39:06;10.90;99.90
24152;DHT22;12311;50.866;4.332;2023-04-06T16:41:32;11.10;99.90
24152;DHT22;12311;50.866;4.332;2023-04-06T16:43:58;11.20;99.90
24152;DHT22;12311;50.866;4.332;2023-04-06T16:46:31;11.20;99.90
24152;DHT22;12311;50.866;4.332;2023-04-06T16:48:58;11.40;99.90
24152;DHT22;12311;50.866;4.332;2023-04-06T16:51:24;11.40;99.90
24152;DHT22;12311;50.866;4.332;2023-04-06T16:53:52;11.40;99.90
24152;DHT22;12311;50.866;4.332;2023-04-06T16:56:18;11.50;99.90
24152;DHT22;12311;50.866;4.332;2023-04-06T16:58:44;11.50;99.90
24152;DHT22;12311;50.866;4.332;2023-04-06T17:01:27;11.50;99.90
24152;DHT22;12311;50.866;4.332;2023-04-06T17:03:53;11.60;99.90
24152;DHT22;12311;50.866;4.332;2023-04-06T17:06:20;11.60;99.90
24152;DHT22;12311;50.866;4.332;2023-04-06T17:08:46;11.50;99.90
24152;DHT22;12311;50.866;4.332;2023-04-06T17:11:14;11.50;99.90
24152;DHT22;12311;50.866;4.332;2023-04-06T17:13:40;11.50;99.90
24152;DHT22;12311;50.866;4.332;2023-04-06T17:16:06;11.60;99.90
24152;DHT22;12311;50.866;4.332;2023-04-06T17:18:32;11.50;99.90
24152;DHT22;12311;50.866;4.332;2023-04-06T17:21:03;11.50;99.90
24152;DHT22;12311;50.866;4.332;2023-04-06T17:23:30;11.50;99.90
24152;DHT22;12311;50.866;4.332;2023-04-06T17:25:56;11.50;99.90
24152;DHT22;12311;50.866;4.332;2023-04-06T17:28:24;11.50;99.90
24152;DHT22;12311;50.866;4.332;2023-04-06T17:30:50;11.50;99.90
24152;DHT22;12311;50.866;4.332;2023-04-06T17:33:16;11.50;99.90
24152;DHT22;12311;50.866;4.332;2023-04-06T17:35:41;11.50;99.90
24152;DHT22;12311;50.866;4.332;2023-04-06T17:38:10;11.40;99.90
24152;DHT22;12311;50.866;4.332;2023-04-06T17:40:36;11.50;99.90
24152;DHT22;12311;50.866;4.332;2023-04-06T17:43:03;11.40;99.90
24152;DHT22;12311;50.866;4.332;2023-04-06T17:45:28;11.40;99.90
24152;DHT22;12311;50.866;4.332;2023-04-06T17:47:54;11.50;99.90
24152;DHT22;12311;50.866;4.332;2023-04-06T17:50:20;11.50;99.90
24152;DHT22;12311;50.866;4.332;2023-04-06T17:52:46;11.40;99.90
24152;DHT22;12311;50.866;4.332;2023-04-06T17:55:14;11.40;99.90
24152;DHT22;12311;50.866;4.332;2023-04-06T17:57:40;11.40;99.90
24152;DHT22;12311;50.866;4.332;2023-04-06T18:00:09;11.30;99.90
24152;DHT22;12311;50.866;4.332;2023-04-06T18:02:36;11.20;99.90
24152;DHT22;12311;50.866;4.332;2023-04-06T18:05:02;11.10;99.90
24152;DHT22;12311;50.866;4.332;2023-04-06T18:07:28;11.00;99.90
24152;DHT22;12311;50.866;4.332;2023-04-06T18:09:53;11.00;99.90
24152;DHT22;12311;50.866;4.332;2023-04-06T18:12:21;10.90;99.90
24152;DHT22;12311;50.866;4.332;2023-04-06T18:14:47;11.00;99.90
24152;DHT22;12311;50.866;4.332;2023-04-06T18:17:12;10.90;99.90
24152;DHT22;12311;50.866;4.332;2023-04-06T18:19:38;10.90;99.90
24152;DHT22;12311;50.866;4.332;2023-04-06T18:22:04;10.80;99.90
24152;DHT22;12311;50.866;4.332;2023-04-06T18:24:30;10.70;99.90
24152;DHT22;12311;50.866;4.332;2023-04-06T18:26:55;10.90;99.90
24152;DHT22;12311;50.866;4.332;2023-04-06T18:29:22;10.90;99.90
24152;DHT22;12311;50.866;4.332;2023-04-06T18:31:47;10.90;99.90
24152;DHT22;12311;50.866;4.332;2023-04-06T18:34:16;10.90;99.90
24152;DHT22;12311;50.866;4.332;2023-04-06T18:36:42;10.90;99.90
24152;DHT22;12311;50.866;4.332;2023-04-06T18:39:08;11.00;99.90
24152;DHT22;12311;50.866;4.332;2023-04-06T18:41:35;11.00;99.90
24152;DHT22;12311;50.866;4.332;2023-04-06T18:44:01;10.90;99.90
24152;DHT22;12311;50.866;4.332;2023-04-06T18:46:27;10.90;99.90
24152;DHT22;12311;50.866;4.332;2023-04-06T18:48:53;10.80;99.90
24152;DHT22;12311;50.866;4.332;2023-04-06T18:51:18;10.70;99.90
24152;DHT22;12311;50.866;4.332;2023-04-06T18:53:44;10.70;99.90
24152;DHT22;12311;50.866;4.332;2023-04-06T18:56:19;10.60;99.90
24152;DHT22;12311;50.866;4.332;2023-04-06T18:58:45;10.60;99.90
24152;DHT22;12311;50.866;4.332;2023-04-06T19:01:29;10.60;99.90
24152;DHT22;12311;50.866;4.332;2023-04-06T19:03:56;10.60;99.90
24152;DHT22;12311;50.866;4.332;2023-04-06T19:06:22;10.50;99.90
24152;DHT22;12311;50.866;4.332;2023-04-06T19:08:48;10.50;99.90
24152;DHT22;12311;50.866;4.332;2023-04-06T19:11:14;10.50;99.90
24152;DHT22;12311;50.866;4.332;2023-04-06T19:13:41;10.50;99.90
24152;DHT22;12311;50.866;4.332;2023-04-06T19:16:11;10.50;99.90
24152;DHT22;12311;50.866;4.332;2023-04-06T19:18:38;10.50;99.90
24152;DHT22;12311;50.866;4.332;2023-04-06T19:21:17;10.70;99.90
24152;DHT22;12311;50.866;4.332;2023-04-06T19:23:45;10.60;99.90
24152;DHT22;12311;50.866;4.332;2023-04-06T19:26:11;10.60;99.90
24152;DHT22;12311;50.866;4.332;2023-04-06T19:28:38;10.70;99.90
24152;DHT22;12311;50.866;4.332;2023-04-06T19:31:05;10.70;99.90
24152;DHT22;12311;50.866;4.332;2023-04-06T19:33:32;10.60;99.90
24152;DHT22;12311;50.866;4.332;2023-04-06T19:35:58;10.70;99.90
24152;DHT22;12311;50.866;4.332;2023-04-06T19:38:23;10.70;99.90
24152;DHT22;12311;50.866;4.332;2023-04-06T19:40:49;10.70;99.90
24152;DHT22;12311;50.866;4.332;2023-04-06T19:43:15;10.70;99.90
24152;DHT22;12311;50.866;4.332;2023-04-06T19:45:42;10.70;99.90
24152;DHT22;12311;50.866;4.332;2023-04-06T19:48:08;10.70;99.90
24152;DHT22;12311;50.866;4.332;2023-04-06T19:50:33;10.80;99.90
24152;DHT22;12311;50.866;4.332;2023-04-06T19:52:59;10.70;99.90
24152;DHT22;12311;50.866;4.332;2023-04-06T19:55:27;10.70;99.90
24152;DHT22;12311;50.866;4.332;2023-04-06T19:57:53;10.50;99.90
24152;DHT22;12311;50.866;4.332;2023-04-06T20:00:18;10.50;99.90
24152;DHT22;12311;50.866;4.332;2023-04-06T20:02:44;10.50;99.90
24152;DHT22;12311;50.866;4.332;2023-04-06T20:05:10;10.50;99.90
24152;DHT22;12311;50.866;4.332;2023-04-06T20:07:36;10.60;99.90
24152;DHT22;12311;50.866;4.332;2023-04-06T20:10:03;10.60;99.90
24152;DHT22;12311;50.866;4.332;2023-04-06T20:12:29;10.40;99.90
24152;DHT22;12311;50.866;4.332;2023-04-06T20:14:55;10.20;99.90
